Stornoway, United Kingdom
Current Conditions -  °F | °C
As of 11:20 AM on Friday 31 Oct 2014 (Local Time) from EGPO Reporting Station
Light Rain Light Rain  
Wind Chill: 59°   Ceiling: 1800
Heat Index: 59°   Visibility: 4mi
Dew Point: 57°   Wind: 14mph
Humidity: 94%   Direction: 180°S
Pressure: 29.56"   Gusts: NA
Location:  58.22°N, 6.39°W
Report Text: EGPO 311120Z 18012KT 6000 -RADZ FEW007 SCT011 BKN018 15/14 Q1001
Loading
Personal Weather Stations






























Interactive Weather Map
Tropical Storm Tracking
New forecast layout! Learn more

10-Day Weather Forecast

Advertisements
Track Severe Weather on mobile